Time;durP1;ratioP1;P1;durP2;ratioP2;P2;SDS_P1;SDS_P2;PMS_P1;PMS_P2;Temp;Humidity;BMP_temperature;BMP_pressure;BME280_temperature;BME280_humidity;BME280_pressure;Samples;Min_cycle;Max_cycle;Signal;HPM_P1;HPM_P2
2023/12/01 00:02:01;;;;;;;4.72;2.67;;;1.40;99.90;;;;;;5150267;27;20020;-47
2023/12/01 00:04:27;;;;;;;5.75;3.13;;;1.30;99.90;;;;;;5149772;27;20034;-46
2023/12/01 00:06:52;;;;;;;5.50;2.88;;;1.30;99.90;;;;;;5149757;27;20061;-46
2023/12/01 00:09:18;;;;;;;5.13;2.70;;;1.30;99.90;;;;;;5150181;27;20138;-49
2023/12/01 00:11:44;;;;;;;4.65;2.75;;;1.30;99.90;;;;;;5150087;27;20184;-48
2023/12/01 00:14:10;;;;;;;8.32;2.80;;;1.30;99.90;;;;;;5149867;27;20075;-50
2023/12/01 00:16:36;;;;;;;9.50;3.15;;;1.30;99.90;;;;;;5149983;27;20177;-49
2023/12/01 00:19:01;;;;;;;5.43;2.75;;;1.30;99.90;;;;;;5148671;27;20048;-46
2023/12/01 00:21:27;;;;;;;6.25;2.60;;;1.30;99.90;;;;;;5149923;27;20223;-49
2023/12/01 00:23:53;;;;;;;7.07;2.85;;;1.20;99.90;;;;;;5150052;27;20091;-49
2023/12/01 00:26:18;;;;;;;5.85;2.28;;;1.20;99.90;;;;;;5149666;27;20035;-47
2023/12/01 00:28:44;;;;;;;5.43;2.53;;;1.20;99.90;;;;;;5149612;27;20096;-46
2023/12/01 00:31:10;;;;;;;5.03;2.40;;;1.20;99.90;;;;;;5148743;27;20015;-49
2023/12/01 00:33:35;;;;;;;8.55;2.40;;;1.20;99.90;;;;;;5149725;27;20046;-49
2023/12/01 00:36:01;;;;;;;6.22;2.40;;;1.20;99.90;;;;;;5147703;27;20031;-47
2023/12/01 00:38:27;;;;;;;5.88;2.42;;;1.10;99.90;;;;;;5148492;27;20023;-49
2023/12/01 00:40:52;;;;;;;7.53;2.92;;;1.10;99.90;;;;;;5149610;27;20054;-47
2023/12/01 00:43:18;;;;;;;7.28;2.63;;;1.10;99.90;;;;;;5149548;27;20043;-49
2023/12/01 00:45:44;;;;;;;9.30;3.08;;;1.10;99.90;;;;;;5149378;27;20046;-46
2023/12/01 00:48:09;;;;;;;8.63;3.33;;;1.10;99.90;;;;;;5149477;27;20027;-49
2023/12/01 00:50:35;;;;;;;8.48;3.38;;;1.00;99.90;;;;;;5148919;27;20294;-46
2023/12/01 00:53:01;;;;;;;5.70;2.55;;;1.00;99.90;;;;;;5148347;27;20086;-48
2023/12/01 00:55:26;;;;;;;5.50;2.47;;;1.00;99.90;;;;;;5149286;27;20035;-47
2023/12/01 00:57:53;;;;;;;3.78;2.38;;;1.00;99.90;;;;;;5148046;27;20057;-46
2023/12/01 01:00:22;;;;;;;6.93;2.50;;;1.00;99.90;;;;;;5148986;27;20284;-47
2023/12/01 01:02:50;;;;;;;4.68;2.33;;;1.00;99.90;;;;;;5148183;27;20047;-47
2023/12/01 01:05:16;;;;;;;5.05;2.47;;;1.00;99.90;;;;;;5148148;27;20023;-46
2023/12/01 01:07:42;;;;;;;5.40;2.08;;;1.00;99.90;;;;;;5147667;27;20100;-49
2023/12/01 01:10:07;;;;;;;5.07;1.98;;;1.00;99.90;;;;;;5148965;27;20031;-49
2023/12/01 01:12:33;;;;;;;4.80;1.90;;;1.00;99.90;;;;;;5147930;27;20035;-47
2023/12/01 01:15:02;;;;;;;3.63;1.95;;;1.00;99.90;;;;;;5148923;27;20015;-48
2023/12/01 01:17:32;;;;;;;4.50;2.33;;;1.00;99.90;;;;;;5148912;27;20038;-49
2023/12/01 01:19:58;;;;;;;4.45;2.22;;;0.90;99.90;;;;;;5148605;27;20023;-48
2023/12/01 01:22:25;;;;;;;3.78;2.00;;;0.90;99.90;;;;;;5148293;27;20098;-48
2023/12/01 01:24:51;;;;;;;4.93;2.55;;;0.90;99.90;;;;;;5148824;27;20069;-49
2023/12/01 01:27:16;;;;;;;5.28;2.17;;;0.90;99.90;;;;;;5148613;27;20046;-46
2023/12/01 01:29:43;;;;;;;5.32;2.30;;;0.80;99.90;;;;;;5148260;27;20023;-47
2023/12/01 01:32:09;;;;;;;4.88;1.92;;;0.90;99.90;;;;;;5148317;27;20039;-47
2023/12/01 01:34:34;;;;;;;6.00;2.25;;;0.90;99.90;;;;;;5148437;27;20072;-49
2023/12/01 01:37:00;;;;;;;4.20;2.10;;;0.80;99.90;;;;;;5147439;27;20020;-48
2023/12/01 01:39:26;;;;;;;3.92;2.00;;;0.80;99.90;;;;;;5147938;27;20027;-47
2023/12/01 01:41:53;;;;;;;5.32;2.38;;;0.80;99.90;;;;;;5147439;27;20027;-48
2023/12/01 01:44:18;;;;;;;4.03;2.35;;;0.80;99.90;;;;;;5148317;27;20068;-49
2023/12/01 01:46:45;;;;;;;4.65;2.03;;;0.80;99.90;;;;;;5146551;27;20098;-49
2023/12/01 01:49:11;;;;;;;4.03;2.10;;;0.80;99.90;;;;;;5147685;27;20038;-49
2023/12/01 01:51:37;;;;;;;5.03;2.20;;;0.80;99.90;;;;;;5147169;27;20019;-46
2023/12/01 01:54:03;;;;;;;5.10;2.22;;;0.80;99.90;;;;;;5148133;27;20031;-46
2023/12/01 01:56:30;;;;;;;4.45;1.92;;;0.80;99.90;;;;;;5148209;27;20031;-46
2023/12/01 01:58:56;;;;;;;3.92;2.15;;;0.80;99.90;;;;;;5130753;27;20015;-46
2023/12/01 02:01:22;;;;;;;3.90;2.08;;;0.70;99.90;;;;;;5148219;27;20280;-46
2023/12/01 02:03:47;;;;;;;3.55;1.70;;;0.70;99.90;;;;;;5148353;27;20035;-46
2023/12/01 02:06:13;;;;;;;4.50;2.05;;;0.70;99.90;;;;;;5148191;27;20023;-46
2023/12/01 02:08:39;;;;;;;3.42;2.33;;;0.70;99.90;;;;;;5147902;27;20105;-46
2023/12/01 02:11:05;;;;;;;4.13;2.25;;;0.70;99.90;;;;;;5146838;27;20027;-47
2023/12/01 02:13:31;;;;;;;3.40;1.95;;;0.70;99.90;;;;;;5148286;27;20031;-46
2023/12/01 02:15:59;;;;;;;3.33;2.10;;;0.70;99.90;;;;;;5148376;27;20043;-46
2023/12/01 02:18:33;;;;;;;4.57;2.25;;;0.60;99.90;;;;;;5147854;27;20219;-46
2023/12/01 02:20:59;;;;;;;4.68;2.28;;;0.60;99.90;;;;;;5147973;27;20023;-46
2023/12/01 02:23:24;;;;;;;4.38;2.28;;;0.50;99.90;;;;;;5147643;27;20098;-46
2023/12/01 02:25:50;;;;;;;4.93;2.22;;;0.60;99.90;;;;;;5146452;27;20147;-47
2023/12/01 02:28:16;;;;;;;4.20;2.13;;;0.60;99.90;;;;;;5146876;27;20201;-47
2023/12/01 02:30:43;;;;;;;5.93;2.08;;;0.60;99.90;;;;;;5129428;27;20054;-45
2023/12/01 02:33:15;;;;;;;3.53;2.03;;;0.50;99.90;;;;;;5147690;27;20195;-47
2023/12/01 02:35:44;;;;;;;4.75;2.00;;;0.50;99.90;;;;;;5147215;27;20023;-46
2023/12/01 02:38:10;;;;;;;5.30;1.92;;;0.50;99.90;;;;;;5147469;27;20102;-45
2023/12/01 02:40:42;;;;;;;5.45;2.20;;;0.50;99.90;;;;;;5147414;27;20303;-46
2023/12/01 02:43:08;;;;;;;5.90;2.30;;;0.40;99.90;;;;;;5146379;27;20031;-46
2023/12/01 02:45:34;;;;;;;6.65;2.45;;;0.40;99.90;;;;;;5147243;27;20083;-46
2023/12/01 02:48:00;;;;;;;4.05;2.17;;;0.40;99.90;;;;;;5147114;27;20244;-46
2023/12/01 02:50:26;;;;;;;5.30;2.28;;;0.40;99.90;;;;;;5146985;27;20205;-46
2023/12/01 02:52:51;;;;;;;4.07;2.08;;;0.40;99.90;;;;;;5147069;27;20229;-46
2023/12/01 02:55:17;;;;;;;3.42;2.00;;;0.40;99.90;;;;;;5147043;27;20027;-45
2023/12/01 02:57:43;;;;;;;4.75;2.00;;;0.40;99.90;;;;;;5146972;27;20064;-46
2023/12/01 03:00:13;;;;;;;7.03;2.80;;;0.40;99.90;;;;;;5145394;27;20027;-46
2023/12/01 03:02:42;;;;;;;4.00;1.88;;;0.40;99.90;;;;;;5146932;27;20022;-46
2023/12/01 03:05:09;;;;;;;6.15;2.15;;;0.40;99.90;;;;;;5147039;27;20027;-46
2023/12/01 03:07:38;;;;;;;4.85;2.25;;;0.30;99.90;;;;;;5146504;27;20240;-46
2023/12/01 03:10:09;;;;;;;3.83;2.20;;;0.40;99.90;;;;;;5146591;27;20043;-46
2023/12/01 03:12:38;;;;;;;5.07;2.42;;;0.30;99.90;;;;;;5146850;27;20071;-47
2023/12/01 03:15:05;;;;;;;5.60;2.30;;;0.30;99.90;;;;;;5145806;28;20019;-48
2023/12/01 03:17:31;;;;;;;5.88;2.38;;;0.30;99.90;;;;;;5146843;27;20034;-47
2023/12/01 03:19:57;;;;;;;4.95;2.13;;;0.30;99.90;;;;;;5146607;27;20253;-46
2023/12/01 03:22:23;;;;;;;5.10;2.25;;;0.30;99.90;;;;;;5145711;28;20098;-46
2023/12/01 03:24:50;;;;;;;5.22;2.15;;;0.30;99.90;;;;;;5146791;28;20084;-46
2023/12/01 03:27:19;;;;;;;3.47;1.90;;;0.20;99.90;;;;;;5145631;28;20223;-47
2023/12/01 03:29:45;;;;;;;4.80;2.50;;;0.20;99.90;;;;;;5146318;27;20321;-46
2023/12/01 03:32:11;;;;;;;3.90;2.10;;;0.20;99.90;;;;;;5128287;28;20023;-47
2023/12/01 03:34:37;;;;;;;5.97;2.45;;;0.20;99.90;;;;;;5146585;28;20037;-46
2023/12/01 03:37:03;;;;;;;4.10;2.45;;;0.20;99.90;;;;;;5145596;28;20027;-49
2023/12/01 03:39:30;;;;;;;4.28;2.38;;;0.20;99.90;;;;;;5146609;28;20124;-48
2023/12/01 03:41:55;;;;;;;5.53;2.42;;;0.30;99.90;;;;;;5146588;28;20094;-46
2023/12/01 03:44:21;;;;;;;4.25;2.58;;;0.20;99.90;;;;;;5146496;28;20162;-47
2023/12/01 03:46:47;;;;;;;4.32;2.60;;;0.20;99.90;;;;;;5145418;28;20094;-48
2023/12/01 03:49:13;;;;;;;5.80;2.50;;;0.10;99.90;;;;;;5146470;28;20296;-49
2023/12/01 03:51:39;;;;;;;5.63;2.70;;;0.10;99.90;;;;;;5146042;28;20088;-46
2023/12/01 03:54:04;;;;;;;5.85;2.83;;;0.10;99.90;;;;;;5128217;28;20068;-47
2023/12/01 03:56:30;;;;;;;4.97;2.88;;;0.20;99.90;;;;;;5146457;28;20031;-45
2023/12/01 03:58:56;;;;;;;4.78;2.78;;;0.10;99.90;;;;;;5145425;28;20026;-45
2023/12/01 04:01:22;;;;;;;4.88;2.70;;;0.10;99.90;;;;;;5128179;28;20058;-46
2023/12/01 04:03:48;;;;;;;4.78;2.45;;;0.20;99.90;;;;;;5146221;28;20045;-49
2023/12/01 04:06:13;;;;;;;5.57;2.75;;;0.20;99.90;;;;;;5146141;28;20031;-49
2023/12/01 04:08:39;;;;;;;4.25;2.05;;;0.10;99.90;;;;;;5146005;28;20237;-49
2023/12/01 04:11:06;;;;;;;4.88;2.53;;;0.10;99.90;;;;;;5147763;27;20090;-49
2023/12/01 04:13:32;;;;;;;6.07;2.22;;;0.10;99.90;;;;;;5149078;27;20271;-48
2023/12/01 04:15:58;;;;;;;3.88;2.40;;;0.10;99.90;;;;;;5149002;27;20154;-49
2023/12/01 04:18:27;;;;;;;4.97;2.28;;;0.10;99.90;;;;;;5149472;27;20034;-49
2023/12/01 04:20:53;;;;;;;5.32;2.67;;;0.10;99.90;;;;;;5149896;27;20027;-47
2023/12/01 04:23:19;;;;;;;8.20;2.90;;;0.10;99.90;;;;;;5149941;27;20027;-48
2023/12/01 04:25:46;;;;;;;4.05;2.50;;;0.10;99.90;;;;;;5149871;27;20031;-47
2023/12/01 04:28:12;;;;;;;5.40;2.63;;;0.10;99.90;;;;;;5149559;27;20039;-48
2023/12/01 04:30:38;;;;;;;4.80;2.50;;;0.10;99.90;;;;;;5149645;27;20177;-46
2023/12/01 04:33:04;;;;;;;7.57;2.60;;;0.00;99.90;;;;;;5149971;27;20026;-48
2023/12/01 04:35:31;;;;;;;4.07;2.38;;;0.00;99.90;;;;;;5148753;27;20033;-47
2023/12/01 04:37:58;;;;;;;4.60;2.42;;;0.00;99.90;;;;;;5148720;27;20041;-47
2023/12/01 04:40:24;;;;;;;5.18;2.72;;;0.00;99.90;;;;;;5149512;27;20091;-48
2023/12/01 04:42:54;;;;;;;5.35;2.65;;;0.00;99.90;;;;;;5148570;27;20031;-47
2023/12/01 04:45:21;;;;;;;4.95;2.80;;;0.00;99.90;;;;;;5149539;27;20033;-49
2023/12/01 04:47:51;;;;;;;6.22;2.60;;;0.00;99.90;;;;;;5149436;27;20297;-46
2023/12/01 04:50:21;;;;;;;5.43;2.42;;;0.00;99.90;;;;;;5149271;27;20031;-45
2023/12/01 04:52:52;;;;;;;4.68;2.97;;;0.00;99.90;;;;;;5148916;27;20192;-48
2023/12/01 04:55:18;;;;;;;5.15;2.53;;;0.00;99.90;;;;;;5149297;27;20034;-48
2023/12/01 04:57:44;;;;;;;6.55;2.55;;;0.00;99.90;;;;;;5148933;27;20023;-49
2023/12/01 05:00:21;;;;;;;4.30;2.60;;;0.00;99.90;;;;;;5149064;27;20038;-47
2023/12/01 05:02:59;;;;;;;5.00;2.65;;;-0.10;99.90;;;;;;5148285;27;20026;-49
2023/12/01 05:05:30;;;;;;;7.18;2.83;;;-0.10;99.90;;;;;;5149101;27;20019;-48
2023/12/01 05:07:57;;;;;;;3.75;2.30;;;-0.10;99.90;;;;;;5147800;27;20205;-48
2023/12/01 05:10:26;;;;;;;6.13;2.70;;;-0.10;99.90;;;;;;5147746;27;20090;-47
2023/12/01 05:12:54;;;;;;;5.75;3.28;;;-0.20;99.90;;;;;;5148961;27;20042;-46
2023/12/01 05:15:24;;;;;;;5.28;2.65;;;-0.10;99.90;;;;;;5148858;27;20032;-47
2023/12/01 05:17:53;;;;;;;4.82;2.58;;;-0.10;99.90;;;;;;5148824;27;20022;-47
2023/12/01 05:20:19;;;;;;;4.28;2.75;;;-0.10;99.90;;;;;;5148317;27;20311;-49
2023/12/01 05:22:46;;;;;;;7.25;3.50;;;-0.10;99.90;;;;;;5148164;27;20308;-49
2023/12/01 05:25:16;;;;;;;4.90;2.60;;;-0.20;99.90;;;;;;5147854;27;20231;-49
2023/12/01 05:27:46;;;;;;;4.90;2.50;;;-0.20;99.90;;;;;;5148283;27;20035;-47
2023/12/01 05:30:12;;;;;;;;;;;-0.20;99.90;;;;;;5148851;27;20019;-47
2023/12/01 05:32:48;;;;;;;4.63;2.05;;;-0.30;99.90;;;;;;5147611;27;19908;-49
2023/12/01 05:35:15;;;;;;;6.15;2.70;;;-0.20;99.90;;;;;;5148566;27;20023;-49
2023/12/01 05:37:48;;;;;;;3.72;2.33;;;-0.20;99.90;;;;;;5147285;27;20052;-48
2023/12/01 05:40:16;;;;;;;4.07;2.45;;;-0.10;99.90;;;;;;5147514;27;20031;-49
2023/12/01 05:42:42;;;;;;;4.10;2.50;;;-0.20;99.90;;;;;;5147563;27;20030;-49
2023/12/01 05:45:12;;;;;;;4.32;2.42;;;-0.10;99.90;;;;;;5147238;27;20031;-47
2023/12/01 05:47:42;;;;;;;5.53;2.58;;;-0.20;99.90;;;;;;5148287;27;20103;-47
2023/12/01 05:50:20;;;;;;;4.45;2.17;;;-0.20;99.90;;;;;;5147321;27;20219;-48
2023/12/01 05:52:46;;;;;;;3.70;2.38;;;-0.20;99.90;;;;;;5147742;27;20031;-47
2023/12/01 05:55:15;;;;;;;5.65;2.50;;;-0.20;99.90;;;;;;5148116;27;20094;-46
2023/12/01 05:57:44;;;;;;;4.55;2.42;;;-0.20;99.90;;;;;;5147724;27;20146;-49
2023/12/01 06:00:15;;;;;;;5.33;2.23;;;-0.20;99.90;;;;;;5147888;27;20027;-49
2023/12/01 06:02:50;;;;;;;8.73;2.80;;;-0.20;99.90;;;;;;5147820;27;20035;-49
2023/12/01 06:05:20;;;;;;;5.40;2.20;;;-0.20;99.90;;;;;;5147995;27;20034;-49
2023/12/01 06:07:50;;;;;;;7.88;2.88;;;-0.20;99.90;;;;;;5147430;27;20058;-49
2023/12/01 06:10:17;;;;;;;5.93;2.30;;;-0.20;99.90;;;;;;5147594;27;20038;-48
2023/12/01 06:12:43;;;;;;;4.00;2.10;;;-0.20;99.90;;;;;;5147640;27;20138;-49
2023/12/01 06:15:10;;;;;;;4.18;2.30;;;-0.20;99.90;;;;;;5129667;27;20276;-46
2023/12/01 06:17:39;;;;;;;5.38;2.35;;;-0.20;99.90;;;;;;5147742;27;20079;-47
2023/12/01 06:20:16;;;;;;;4.18;1.90;;;-0.20;99.90;;;;;;5147782;27;20030;-48
2023/12/01 06:23:05;;;;;;;4.07;2.17;;;-0.30;99.90;;;;;;5147732;27;20084;-49
2023/12/01 06:25:32;;;;;;;4.50;2.43;;;-0.30;99.90;;;;;;5146462;27;20031;-50
2023/12/01 06:28:02;;;;;;;5.38;2.38;;;-0.30;99.90;;;;;;5129278;27;20289;-51
2023/12/01 06:30:29;;;;;;;;;;;-0.30;99.90;;;;;;5147754;27;20023;-50
2023/12/01 06:32:55;;;;;;;3.83;2.13;;;-0.40;99.90;;;;;;5146204;27;19903;-51
2023/12/01 06:35:21;;;;;;;4.00;2.05;;;-0.30;99.90;;;;;;5147121;27;20023;-51
2023/12/01 06:37:47;;;;;;;6.30;2.65;;;-0.30;99.90;;;;;;5146998;27;20031;-49
2023/12/01 06:40:15;;;;;;;5.07;2.13;;;-0.40;99.90;;;;;;5147051;27;20344;-48
2023/12/01 06:42:49;;;;;;;5.50;2.38;;;-0.40;99.90;;;;;;5147043;27;20031;-49
2023/12/01 06:45:15;;;;;;;3.88;2.13;;;-0.40;99.90;;;;;;5147211;27;20027;-47
2023/12/01 06:47:46;;;;;;;7.75;3.83;;;-0.40;99.90;;;;;;5146209;27;20023;-45
2023/12/01 06:50:14;;;;;;;3.60;2.22;;;-0.40;99.90;;;;;;5146862;27;20034;-46
2023/12/01 06:52:40;;;;;;;6.97;2.80;;;-0.40;99.90;;;;;;5146768;27;20034;-45
2023/12/01 06:55:09;;;;;;;4.40;2.70;;;-0.40;99.90;;;;;;5146954;27;20030;-48
2023/12/01 06:57:45;;;;;;;7.60;2.40;;;-0.50;99.90;;;;;;5146942;27;20054;-48
2023/12/01 07:00:28;;;;;;;5.93;2.35;;;-0.50;99.90;;;;;;5146942;27;20031;-46
2023/12/01 07:02:59;;;;;;;5.25;2.63;;;-0.50;99.90;;;;;;5146917;27;20027;-48
2023/12/01 07:05:25;;;;;;;4.63;2.05;;;-0.40;99.90;;;;;;5146838;27;20336;-48
2023/12/01 07:07:54;;;;;;;7.28;2.42;;;-0.50;99.90;;;;;;5145481;27;20073;-48
2023/12/01 07:10:21;;;;;;;5.70;2.70;;;-0.50;99.90;;;;;;5145632;27;20015;-48
2023/12/01 07:12:47;;;;;;;10.88;3.00;;;-0.50;99.90;;;;;;5146688;27;20090;-50
2023/12/01 07:15:14;;;;;;;5.90;2.90;;;-0.50;99.90;;;;;;5146158;28;20027;-46
2023/12/01 07:17:40;;;;;;;7.07;3.75;;;-0.50;99.90;;;;;;5146525;27;20030;-49
2023/12/01 07:20:13;;;;;;;6.53;3.60;;;-0.60;99.90;;;;;;5146684;28;20027;-49
2023/12/01 07:22:40;;;;;;;8.63;5.80;;;-0.60;99.90;;;;;;5146746;27;20137;-46
2023/12/01 07:25:10;;;;;;;6.70;3.00;;;-0.60;99.90;;;;;;5146762;28;20031;-49
2023/12/01 07:27:39;;;;;;;10.98;7.03;;;-0.60;99.90;;;;;;5129092;28;20148;-49
2023/12/01 07:30:06;;;;;;;6.25;2.88;;;-0.60;99.90;;;;;;5146438;28;20083;-48
2023/12/01 07:32:32;;;;;;;4.75;2.80;;;-0.60;99.90;;;;;;5145192;28;20076;-47
2023/12/01 07:34:58;;;;;;;5.15;2.60;;;-0.60;99.90;;;;;;5146451;28;20020;-48
2023/12/01 07:37:24;;;;;;;7.30;2.83;;;-0.60;99.90;;;;;;5145605;28;20094;-46
2023/12/01 07:39:49;;;;;;;6.13;2.75;;;-0.70;99.90;;;;;;5146305;28;20031;-46
2023/12/01 07:42:16;;;;;;;5.20;2.55;;;-0.70;99.90;;;;;;5146401;28;20020;-48
2023/12/01 07:44:41;;;;;;;7.68;2.50;;;-0.60;99.90;;;;;;5147135;27;20084;-48
2023/12/01 07:47:11;;;;;;;5.63;2.60;;;-0.60;99.90;;;;;;5150071;27;20212;-47
2023/12/01 07:49:37;;;;;;;;;;;-0.60;99.90;;;;;;5151027;27;20082;-47
2023/12/01 07:52:06;;;;;;;5.00;2.70;;;-0.60;99.90;;;;;;5150269;27;20069;-45
2023/12/01 07:54:35;;;;;;;6.70;3.35;;;-0.60;99.90;;;;;;5150071;27;20023;-47
2023/12/01 07:57:01;;;;;;;15.80;7.28;;;-0.60;99.90;;;;;;5150388;27;20023;-47
2023/12/01 07:59:27;;;;;;;21.65;10.05;;;-0.60;99.90;;;;;;5150359;27;20038;-49
2023/12/01 08:01:53;;;;;;;11.02;5.47;;;-0.60;99.90;;;;;;5149964;27;20039;-47
2023/12/01 08:04:19;;;;;;;8.50;3.70;;;-0.70;99.90;;;;;;5149762;27;20311;-48
2023/12/01 08:06:45;;;;;;;6.32;3.60;;;-0.70;99.90;;;;;;5149503;27;20235;-48
2023/12/01 08:09:16;;;;;;;6.55;4.00;;;-0.60;99.90;;;;;;5149950;27;20324;-47
2023/12/01 08:11:43;;;;;;;11.43;4.00;;;-0.60;99.90;;;;;;5149361;27;20041;-47
2023/12/01 08:14:10;;;;;;;5.85;2.90;;;-0.60;99.90;;;;;;5149530;27;20031;-48
2023/12/01 08:16:35;;;;;;;7.95;2.55;;;-0.60;99.90;;;;;;5149327;27;20273;-49
2023/12/01 08:19:01;;;;;;;6.70;3.20;;;-0.60;99.90;;;;;;5149712;27;20031;-46
2023/12/01 08:21:27;;;;;;;5.03;2.75;;;-0.60;99.90;;;;;;5149706;27;20083;-47
2023/12/01 08:23:52;;;;;;;5.38;2.50;;;-0.70;99.90;;;;;;5149537;27;20042;-47
2023/12/01 08:26:22;;;;;;;7.22;3.00;;;-0.70;99.90;;;;;;5149550;27;20340;-46
2023/12/01 08:28:47;;;;;;;8.35;4.40;;;-0.70;99.90;;;;;;5149567;27;20047;-46
2023/12/01 08:31:13;;;;;;;7.32;4.13;;;-0.60;99.90;;;;;;5149734;27;20046;-47
2023/12/01 08:33:39;;;;;;;14.95;7.68;;;-0.60;99.90;;;;;;5148937;27;20030;-46
2023/12/01 08:36:05;;;;;;;17.52;11.30;;;-0.60;99.90;;;;;;5149096;27;20027;-46
2023/12/01 08:38:30;;;;;;;29.13;17.45;;;-0.50;99.90;;;;;;5149054;27;20035;-49
2023/12/01 08:40:56;;;;;;;25.50;16.40;;;-0.50;99.90;;;;;;5149297;27;20046;-48
2023/12/01 08:43:22;;;;;;;18.55;12.93;;;-0.50;99.90;;;;;;5148132;27;20067;-47
2023/12/01 08:45:47;;;;;;;25.67;13.23;;;-0.40;99.90;;;;;;5148703;27;20065;-47
2023/12/01 08:48:13;;;;;;;19.30;11.80;;;-0.40;99.90;;;;;;5147314;27;20031;-48
2023/12/01 08:50:39;;;;;;;16.25;8.70;;;-0.40;99.90;;;;;;5148964;27;20019;-48
2023/12/01 08:53:05;;;;;;;11.80;5.90;;;-0.30;99.90;;;;;;5149408;27;20042;-48
2023/12/01 08:55:31;;;;;;;5.82;3.60;;;-0.30;99.90;;;;;;5148890;27;20042;-48
2023/12/01 08:57:56;;;;;;;4.55;2.47;;;-0.30;99.90;;;;;;5148109;27;20023;-47
2023/12/01 09:00:23;;;;;;;8.48;3.58;;;-0.20;99.90;;;;;;5148675;27;20019;-49
2023/12/01 09:02:49;;;;;;;5.57;2.83;;;-0.20;99.90;;;;;;5148597;27;20054;-49
2023/12/01 09:05:16;;;;;;;8.77;3.88;;;-0.10;99.90;;;;;;5148601;27;20064;-49
2023/12/01 09:07:44;;;;;;;9.95;4.65;;;-0.10;99.90;;;;;;5148257;27;20038;-46
2023/12/01 09:10:10;;;;;;;13.27;5.85;;;0.00;99.90;;;;;;5147797;27;20094;-50
2023/12/01 09:12:36;;;;;;;9.18;4.85;;;0.20;99.90;;;;;;5148636;27;20302;-50
2023/12/01 09:15:01;;;;;;;7.03;4.22;;;1.40;99.90;;;;;;5148285;27;20035;-48
2023/12/01 09:17:27;;;;;;;10.10;6.15;;;2.80;99.90;;;;;;5148277;27;20028;-49
2023/12/01 09:19:53;;;;;;;6.20;3.35;;;4.20;99.90;;;;;;5148301;27;20019;-46
2023/12/01 09:22:18;;;;;;;5.78;2.90;;;5.20;99.90;;;;;;5146901;27;20111;-47
2023/12/01 09:24:45;;;;;;;5.95;2.42;;;6.00;99.90;;;;;;5148243;27;20115;-50
2023/12/01 09:27:10;;;;;;;3.28;2.13;;;6.50;99.90;;;;;;5148099;27;20343;-48
2023/12/01 09:29:36;;;;;;;4.50;2.15;;;7.00;99.90;;;;;;5147178;27;20038;-47
2023/12/01 09:32:02;;;;;;;4.13;2.38;;;7.40;99.90;;;;;;5148326;27;20027;-51
2023/12/01 09:34:28;;;;;;;3.42;1.98;;;7.50;97.50;;;;;;5148160;27;20094;-50
2023/12/01 09:36:54;;;;;;;3.20;1.88;;;7.80;95.80;;;;;;5148046;27;20027;-51
2023/12/01 09:39:20;;;;;;;3.55;1.80;;;8.10;90.10;;;;;;5146743;27;20027;-50
2023/12/01 09:41:46;;;;;;;3.95;2.25;;;6.70;90.70;;;;;;5147422;27;20046;-49
2023/12/01 09:44:11;;;;;;;5.53;1.70;;;5.60;99.00;;;;;;5146629;27;20038;-51
2023/12/01 09:46:37;;;;;;;3.95;1.48;;;4.60;99.90;;;;;;5147897;27;20069;-50
2023/12/01 09:49:04;;;;;;;3.95;2.50;;;4.00;99.90;;;;;;5147887;27;20023;-50
2023/12/01 09:51:31;;;;;;;9.30;6.20;;;3.60;99.90;;;;;;5148240;27;20072;-50
2023/12/01 09:53:58;;;;;;;24.75;15.02;;;3.30;99.90;;;;;;5147481;27;20082;-47
2023/12/01 09:56:24;;;;;;;25.98;17.88;;;3.00;99.90;;;;;;5147308;27;20019;-47
2023/12/01 09:58:49;;;;;;;20.17;16.15;;;2.80;99.90;;;;;;5112261;27;20150;-48
2023/12/01 10:01:15;;;;;;;17.85;12.23;;;2.70;99.90;;;;;;5112252;27;20195;-47
2023/12/01 10:03:41;;;;;;;17.00;14.77;;;2.60;99.90;;;;;;5146002;27;20027;-48
2023/12/01 10:06:07;;;;;;;10.18;7.78;;;2.50;99.90;;;;;;5147183;27;20245;-48
2023/12/01 10:08:34;;;;;;;13.60;7.72;;;2.40;99.90;;;;;;5144936;27;20205;-49
2023/12/01 10:10:59;;;;;;;10.02;6.90;;;2.40;99.90;;;;;;5111718;27;20031;-48
2023/12/01 10:13:30;;;;;;;8.57;5.85;;;2.30;99.90;;;;;;5147264;27;20031;-50
2023/12/01 10:15:55;;;;;;;16.48;7.32;;;2.30;99.90;;;;;;5129905;27;20023;-49
2023/12/01 10:18:23;;;;;;;18.52;12.35;;;2.30;99.90;;;;;;5128784;27;20058;-48
2023/12/01 10:20:58;;;;;;;16.33;8.77;;;2.40;99.90;;;;;;5147054;27;20027;-48
2023/12/01 10:23:24;;;;;;;13.93;8.30;;;2.40;99.90;;;;;;5147244;27;20038;-49
2023/12/01 10:25:50;;;;;;;12.45;7.38;;;2.40;99.90;;;;;;5146818;27;20185;-48
2023/12/01 10:28:17;;;;;;;16.42;7.75;;;2.40;99.90;;;;;;5145838;27;20234;-48
2023/12/01 10:30:56;;;;;;;13.23;6.38;;;2.40;99.90;;;;;;5146754;27;20076;-50
2023/12/01 10:33:22;;;;;;;10.65;6.63;;;2.40;99.90;;;;;;5129310;27;20030;-50
2023/12/01 10:36:05;;;;;;;8.77;4.50;;;2.40;99.90;;;;;;5147045;27;20019;-51
2023/12/01 10:38:33;;;;;;;8.30;4.80;;;2.40;99.90;;;;;;5146633;27;20023;-49
2023/12/01 10:40:59;;;;;;;10.18;5.63;;;2.40;99.90;;;;;;5145338;27;20072;-50
2023/12/01 10:43:26;;;;;;;11.88;5.43;;;2.50;99.90;;;;;;5146200;27;20026;-50
2023/12/01 10:45:52;;;;;;;7.50;3.72;;;2.50;99.90;;;;;;5146754;27;20031;-48
2023/12/01 10:48:19;;;;;;;6.03;3.28;;;2.70;99.90;;;;;;5128311;27;20152;-49
2023/12/01 10:50:46;;;;;;;10.07;5.45;;;2.70;99.90;;;;;;5146786;27;20268;-48
2023/12/01 10:53:12;;;;;;;7.18;3.90;;;2.80;99.90;;;;;;5145393;27;20027;-47
2023/12/01 10:55:37;;;;;;;7.63;4.93;;;2.90;99.90;;;;;;5128433;27;20301;-47
2023/12/01 10:58:08;;;;;;;12.93;7.93;;;2.90;99.90;;;;;;5128025;27;20023;-49
2023/12/01 11:00:33;;;;;;;22.45;16.27;;;2.90;99.90;;;;;;5146430;27;20050;-46
2023/12/01 11:03:00;;;;;;;31.77;19.38;;;2.90;99.90;;;;;;5146518;27;20027;-48
2023/12/01 11:05:30;;;;;;;21.38;15.15;;;3.00;99.90;;;;;;5146556;27;20030;-47
2023/12/01 11:07:56;;;;;;;;;;;3.00;99.90;;;;;;5145362;27;20051;-48
2023/12/01 11:11:07;;;;;;;8.38;5.65;;;3.00;99.90;;;;;;5146332;27;19908;-47
2023/12/01 11:13:43;;;;;;;10.00;5.25;;;3.10;99.90;;;;;;5135855;27;20047;-47
2023/12/01 11:16:09;;;;;;;7.78;3.55;;;3.20;99.90;;;;;;5145835;27;20171;-47
2023/12/01 11:18:35;;;;;;;4.32;3.15;;;3.30;99.90;;;;;;5145349;28;20075;-47
2023/12/01 11:21:00;;;;;;;10.50;3.20;;;3.40;99.90;;;;;;5144860;27;20042;-47
2023/12/01 11:23:30;;;;;;;4.75;2.47;;;3.50;99.90;;;;;;5145058;28;20038;-47
2023/12/01 11:26:05;;;;;;;5.18;2.45;;;3.60;99.90;;;;;;5145876;28;20035;-47
2023/12/01 11:28:55;;;;;;;6.13;2.67;;;3.80;99.90;;;;;;5145910;28;20078;-47
2023/12/01 11:31:28;;;;;;;10.07;4.70;;;3.80;99.90;;;;;;5145671;28;20094;-49
2023/12/01 11:33:56;;;;;;;5.05;2.00;;;3.90;99.90;;;;;;5146202;28;20023;-45
2023/12/01 11:36:25;;;;;;;2.95;2.10;;;3.90;99.90;;;;;;5144623;28;20231;-45
2023/12/01 11:41:55;;;;;;;3.65;1.45;;;6.70;99.90;;;;;;5146481;28;20038;-48
2023/12/01 11:44:24;;;;;;;;;;;9.10;97.30;;;;;;5145292;28;20281;-48
2023/12/01 11:46:57;;;;;;;3.92;1.73;;;9.80;68.00;;;;;;5145576;28;19986;-48
2023/12/01 11:49:32;;;;;;;4.93;1.52;;;11.10;41.40;;;;;;5145875;28;20203;-48
2023/12/01 11:52:01;;;;;;;3.25;1.40;;;11.40;35.10;;;;;;5145736;28;20050;-49
2023/12/01 11:54:27;;;;;;;5.53;1.50;;;12.30;28.30;;;;;;5145120;28;20150;-50
2023/12/01 11:56:55;;;;;;;2.33;1.27;;;12.50;28.50;;;;;;5146093;28;20342;-51
2023/12/01 11:59:21;;;;;;;3.67;1.73;;;12.70;25.20;;;;;;5128326;28;20072;-52
2023/12/01 12:01:46;;;;;;;2.90;1.50;;;12.90;25.60;;;;;;5145603;28;20034;-52
2023/12/01 12:04:18;;;;;;;3.40;1.15;;;13.10;23.40;;;;;;5146166;28;20276;-52
2023/12/01 12:06:47;;;;;;;6.03;4.07;;;12.90;23.10;;;;;;5145609;28;20046;-51
2023/12/01 12:09:17;;;;;;;2.67;1.40;;;13.60;21.90;;;;;;5145904;28;20050;-50
2023/12/01 12:11:43;;;;;;;;;;;13.20;21.20;;;;;;5146126;28;20184;-50
2023/12/01 12:14:08;;;;;;;3.08;1.50;;;13.00;22.10;;;;;;5145827;28;19903;-51
2023/12/01 12:16:34;;;;;;;1.20;1.10;;;13.60;21.40;;;;;;5145430;28;20069;-51
2023/12/01 12:19:00;;;;;;;4.18;1.98;;;13.70;19.50;;;;;;5144573;28;20046;-50
2023/12/01 12:21:28;;;;;;;5.93;1.90;;;14.30;18.80;;;;;;5145212;28;20041;-47
2023/12/01 12:23:55;;;;;;;4.13;1.40;;;15.00;17.50;;;;;;5144529;28;20041;-51
2023/12/01 12:26:25;;;;;;;3.17;1.58;;;14.70;16.70;;;;;;5145623;28;20081;-48
2023/12/01 12:28:59;;;;;;;4.65;1.95;;;15.10;18.10;;;;;;5144159;28;20117;-48
2023/12/01 12:31:26;;;;;;;3.85;1.70;;;15.40;16.00;;;;;;5144782;27;20035;-50
2023/12/01 12:33:56;;;;;;;3.25;1.92;;;15.40;16.40;;;;;;5148911;27;20076;-50
2023/12/01 12:36:23;;;;;;;3.17;2.10;;;14.80;15.40;;;;;;5148235;27;20162;-48
2023/12/01 12:38:49;;;;;;;3.15;1.70;;;13.00;18.40;;;;;;5148057;27;20027;-49
2023/12/01 12:41:26;;;;;;;3.65;2.17;;;11.60;21.00;;;;;;5147995;27;20319;-50
2023/12/01 12:43:53;;;;;;;2.40;1.50;;;10.20;25.30;;;;;;5148658;27;20019;-50
2023/12/01 12:46:18;;;;;;;4.90;2.40;;;9.40;28.40;;;;;;5148732;27;20188;-50
2023/12/01 12:48:45;;;;;;;5.00;1.75;;;8.80;30.10;;;;;;5147925;27;20099;-49
2023/12/01 12:51:15;;;;;;;5.03;2.50;;;8.30;37.40;;;;;;5148776;27;20038;-48
2023/12/01 12:53:42;;;;;;;4.82;2.10;;;7.90;37.60;;;;;;5148931;27;20177;-48
2023/12/01 12:56:15;;;;;;;3.58;2.13;;;7.70;42.20;;;;;;5148639;27;20033;-50
2023/12/01 12:58:47;;;;;;;3.40;1.60;;;7.30;57.90;;;;;;5130960;27;20098;-50